Skip Navigation LinksHome page > Weather > Current weather Skip Navigation Links

Current Weather

Ben-Gurion Intl Apt, Tel Aviv, Israel

For information only: do not use for flight planning or navigation.
Latest weather
Observation time Friday, October 21, 2016 3:50 PM IDT
Local time Friday, October 21, 2016 3:58 PM IDT
Flight conditions Visual Meteorological Conditions
Wind direction North-Northwest (330°)
Wind speed 14 mph
Visibility 6.2 mi.
Sky condition
Ceiling unlimited
Sky clear
Temperature 79°F
Dewpoint 64°F
Altimeter 29.91 in.Hg
Derived measurements
Relative humidity 61%
Heat index 79°F
Density altitude 1722 ft.
Ceiling and visibility OK.
No significant changes expected in the next two hours.
METAR LLBG 211250Z 33012KT CAVOK 26/18 Q1013 NOSIG


Location code

InnerDrive.Weather 4.0.5722.1 Release CLR 4.0.30319.34209
Copyright ©2015 Inner Drive Technology. All rights reserved. Portions Copyright ©1986-2015 David Braverman.

Find weather

Site navigation

Skip Navigation Links

Place info

Page info

PayPal - The safer, easier way to pay online!

Return home.

Copyright ©2016 Inner Drive Technology. Purveyors of fine, hand-crafted computer software. Page printed 2016-10-21T12:58:35 UTC.